createdAt,value
2019-06-10T00:00:11.808Z,8.00
2019-06-10T00:01:06.971Z,8.00
2019-06-10T00:02:05.269Z,8.00
2019-06-10T00:03:05.603Z,8.00
2019-06-10T00:04:06.904Z,8.00
2019-06-10T00:05:05.592Z,8.00
2019-06-10T00:06:05.295Z,8.00
2019-06-10T00:07:05.413Z,8.00
2019-06-10T00:08:05.420Z,8.00
2019-06-10T00:09:06.440Z,8.00
2019-06-10T00:10:05.660Z,8.00
2019-06-10T00:11:05.042Z,8.00
2019-06-10T00:12:04.727Z,8.00
2019-06-10T00:13:05.377Z,8.00
2019-06-10T00:14:05.716Z,8.00
2019-06-10T00:15:04.937Z,8.00
2019-06-10T00:16:05.074Z,8.00
2019-06-10T00:17:05.094Z,8.00
2019-06-10T00:18:26.251Z,8.00
2019-06-10T00:19:06.811Z,8.00
2019-06-10T00:20:05.440Z,8.00
2019-06-10T00:21:05.567Z,8.00
2019-06-10T00:22:05.299Z,8.00
2019-06-10T00:23:05.619Z,8.00
2019-06-10T00:24:05.217Z,8.00
2019-06-10T00:25:05.501Z,8.00
2019-06-10T00:26:06.059Z,8.00
2019-06-10T00:27:05.563Z,8.00
2019-06-10T00:28:05.740Z,8.00
2019-06-10T00:29:05.786Z,8.00
2019-06-10T00:30:06.085Z,8.00
2019-06-10T00:31:05.448Z,8.00
2019-06-10T00:32:06.551Z,8.00
2019-06-10T00:33:06.062Z,8.00
2019-06-10T00:34:05.017Z,8.00
2019-06-10T00:35:05.870Z,8.00
2019-06-10T00:36:07.054Z,8.00
2019-06-10T00:37:06.307Z,8.00
2019-06-10T00:38:07.032Z,8.00
2019-06-10T00:39:06.518Z,8.00
2019-06-10T00:40:05.415Z,8.00
2019-06-10T00:41:06.893Z,8.00
2019-06-10T00:42:06.653Z,8.00
2019-06-10T00:43:05.435Z,8.00
2019-06-10T00:44:05.260Z,8.00
2019-06-10T00:45:06.195Z,8.00
2019-06-10T00:46:05.863Z,8.00
2019-06-10T00:47:06.318Z,8.00
2019-06-10T00:48:12.409Z,8.00
2019-06-10T00:49:05.862Z,8.00
2019-06-10T00:50:08.137Z,8.00
2019-06-10T00:51:04.545Z,8.00
2019-06-10T00:52:04.644Z,8.00
2019-06-10T00:53:05.808Z,8.00
2019-06-10T00:54:05.343Z,8.00
2019-06-10T00:55:04.882Z,8.00
2019-06-10T00:56:06.465Z,8.00
2019-06-10T00:57:05.473Z,8.00
2019-06-10T00:58:04.482Z,8.00
2019-06-10T00:59:04.182Z,8.00
2019-06-10T01:00:15.889Z,8.00
2019-06-10T01:01:04.250Z,8.00
2019-06-10T01:02:05.053Z,8.00
2019-06-10T01:03:04.077Z,8.00
2019-06-10T01:04:06.529Z,8.00
2019-06-10T01:05:05.059Z,8.00
2019-06-10T01:06:04.719Z,8.00
2019-06-10T01:07:04.359Z,8.00
2019-06-10T01:08:04.607Z,8.00
2019-06-10T01:09:04.541Z,8.00
2019-06-10T01:10:04.720Z,8.00
2019-06-10T01:11:09.972Z,8.00
2019-06-10T01:12:04.839Z,8.00
2019-06-10T01:13:05.069Z,8.00
2019-06-10T01:14:05.175Z,8.00
2019-06-10T01:15:05.198Z,8.00
2019-06-10T01:16:05.333Z,8.00
2019-06-10T01:17:05.418Z,8.00
2019-06-10T01:18:04.070Z,8.00
2019-06-10T01:19:04.073Z,8.00
2019-06-10T01:20:04.071Z,8.00
2019-06-10T01:21:04.067Z,8.00
2019-06-10T01:22:04.068Z,8.00
2019-06-10T01:23:04.988Z,8.00
2019-06-10T01:24:05.031Z,8.00
2019-06-10T01:25:05.120Z,8.00
2019-06-10T01:26:05.618Z,8.00
2019-06-10T01:27:04.065Z,8.00
2019-06-10T01:28:04.064Z,8.00
2019-06-10T01:29:04.065Z,8.00
2019-06-10T01:30:10.202Z,8.00
2019-06-10T01:31:04.065Z,8.00
2019-06-10T01:32:05.177Z,8.00
2019-06-10T01:33:04.064Z,8.00
2019-06-10T01:34:05.357Z,8.00
2019-06-10T01:35:04.064Z,8.00
2019-06-10T01:36:04.066Z,8.00
2019-06-10T01:37:04.063Z,8.00
2019-06-10T01:38:04.063Z,8.00
2019-06-10T01:39:04.063Z,8.00
2019-06-10T01:40:04.064Z,8.00
2019-06-10T01:41:04.061Z,8.00
2019-06-10T01:42:04.064Z,8.00
2019-06-10T01:43:04.060Z,8.00
2019-06-10T01:44:04.061Z,8.00
2019-06-10T01:45:04.061Z,8.00
2019-06-10T01:46:04.059Z,8.00
2019-06-10T01:47:04.061Z,8.00
2019-06-10T01:48:04.059Z,8.00
2019-06-10T01:49:04.058Z,8.00
2019-06-10T01:50:04.060Z,8.00
2019-06-10T01:51:04.060Z,8.00
2019-06-10T01:52:04.059Z,8.00
2019-06-10T01:53:04.059Z,8.00
2019-06-10T01:54:04.055Z,8.00
2019-06-10T01:55:04.058Z,8.00
2019-06-10T01:56:04.056Z,8.00
2019-06-10T01:57:04.070Z,8.00
2019-06-10T01:58:04.062Z,8.00
2019-06-10T01:59:04.056Z,8.00
2019-06-10T02:00:09.329Z,8.00
2019-06-10T02:01:04.061Z,8.00
2019-06-10T02:02:04.056Z,8.00
2019-06-10T02:03:04.055Z,8.00
2019-06-10T02:04:04.057Z,8.00
2019-06-10T02:05:04.056Z,8.00
2019-06-10T02:06:04.054Z,8.00
2019-06-10T02:07:04.055Z,8.00
2019-06-10T02:08:04.055Z,8.00
2019-06-10T02:09:04.053Z,8.00
2019-06-10T02:10:04.053Z,8.00
2019-06-10T02:11:04.053Z,8.00
2019-06-10T02:12:04.052Z,8.00
2019-06-10T02:13:04.051Z,8.00
2019-06-10T02:14:04.051Z,8.00
2019-06-10T02:15:04.051Z,8.00
2019-06-10T02:16:04.051Z,8.00
2019-06-10T02:17:04.049Z,8.00
2019-06-10T02:18:04.053Z,8.00
2019-06-10T02:19:04.351Z,8.00
2019-06-10T02:20:04.053Z,8.00
2019-06-10T02:21:04.049Z,8.00
2019-06-10T02:22:04.049Z,8.00
2019-06-10T02:23:04.047Z,8.00
2019-06-10T02:24:04.046Z,8.00
2019-06-10T02:25:04.044Z,8.00
2019-06-10T02:26:04.077Z,8.00
2019-06-10T02:27:04.051Z,8.00
2019-06-10T02:28:04.046Z,8.00
2019-06-10T02:29:04.044Z,8.00
2019-06-10T02:30:17.843Z,8.00
2019-06-10T02:31:04.096Z,8.00
2019-06-10T02:32:05.103Z,8.00
2019-06-10T02:33:04.046Z,8.00
2019-06-10T02:34:04.043Z,4.00
2019-06-10T02:35:13.614Z,4.00
2019-06-10T02:36:04.882Z,8.00
2019-06-10T02:37:04.971Z,8.00
2019-06-10T02:38:04.041Z,8.00
2019-06-10T02:39:04.725Z,8.00
2019-06-10T02:40:04.703Z,8.00
2019-06-10T02:41:04.922Z,8.00
2019-06-10T02:42:04.683Z,8.00
2019-06-10T02:43:04.039Z,8.00
2019-06-10T02:44:04.572Z,12.00
2019-06-10T02:45:04.209Z,8.00
2019-06-10T02:46:04.711Z,8.00
2019-06-10T02:47:04.042Z,8.00
2019-06-10T02:48:04.384Z,12.00
2019-06-10T02:49:21.508Z,8.00
2019-06-10T02:50:08.359Z,12.00
2019-06-10T02:51:04.268Z,12.00
2019-06-10T02:52:04.051Z,12.00
2019-06-10T02:53:04.168Z,12.00
2019-06-10T02:54:04.738Z,12.00
2019-06-10T02:55:04.583Z,12.00
2019-06-10T02:56:04.331Z,12.00
2019-06-10T02:57:04.528Z,16.00
2019-06-10T02:58:04.111Z,16.00
2019-06-10T02:59:04.038Z,16.00
2019-06-10T03:00:10.604Z,16.00
2019-06-10T03:01:04.531Z,16.00
2019-06-10T03:02:04.036Z,20.00
2019-06-10T03:03:04.102Z,20.00
2019-06-10T03:04:04.724Z,20.00
2019-06-10T03:05:04.801Z,20.00
2019-06-10T03:06:07.472Z,20.00
2019-06-10T03:07:04.034Z,16.00
2019-06-10T03:08:04.096Z,20.00
2019-06-10T03:09:04.032Z,24.00
2019-06-10T03:10:04.831Z,24.00
2019-06-10T03:11:04.172Z,24.00
2019-06-10T03:12:04.888Z,20.00
2019-06-10T03:13:04.029Z,20.00
2019-06-10T03:14:04.030Z,24.00
2019-06-10T03:15:04.031Z,24.00
2019-06-10T03:16:04.027Z,28.00
2019-06-10T03:17:04.029Z,24.00
2019-06-10T03:18:40.007Z,24.00
2019-06-10T03:19:04.029Z,24.00
2019-06-10T03:20:04.041Z,24.00
2019-06-10T03:21:04.025Z,24.00
2019-06-10T03:22:04.025Z,24.00
2019-06-10T03:23:04.029Z,28.00
2019-06-10T03:24:04.028Z,28.00
2019-06-10T03:25:04.025Z,32.00
2019-06-10T03:26:04.477Z,36.00
2019-06-10T03:27:04.034Z,40.00
2019-06-10T03:28:04.023Z,48.00
2019-06-10T03:29:04.024Z,52.00
2019-06-10T03:30:14.745Z,56.00
2019-06-10T03:31:05.708Z,68.00
2019-06-10T03:32:05.161Z,72.00
2019-06-10T03:33:05.003Z,76.00
2019-06-10T03:34:05.276Z,80.00
2019-06-10T03:35:05.456Z,88.00
2019-06-10T03:36:04.018Z,84.00
2019-06-10T03:37:04.017Z,92.00
2019-06-10T03:38:04.016Z,96.00
2019-06-10T03:39:04.017Z,108.00
2019-06-10T03:40:04.019Z,124.00
2019-06-10T03:41:04.019Z,136.00
2019-06-10T03:42:04.014Z,156.00
2019-06-10T03:43:04.015Z,168.00
2019-06-10T03:44:04.014Z,164.00
2019-06-10T03:45:04.013Z,172.00
2019-06-10T03:46:04.013Z,184.00
2019-06-10T03:47:04.011Z,188.00
2019-06-10T03:48:04.014Z,200.00
2019-06-10T03:49:04.011Z,220.00
2019-06-10T03:50:04.011Z,232.00
2019-06-10T03:51:04.011Z,240.00
2019-06-10T03:52:04.011Z,248.00
2019-06-10T03:53:04.448Z,252.00
2019-06-10T03:54:04.008Z,252.00
2019-06-10T03:55:04.007Z,264.00
2019-06-10T03:56:04.005Z,276.00
2019-06-10T03:57:04.007Z,268.00
2019-06-10T03:58:04.006Z,252.00
2019-06-10T03:59:04.014Z,236.00
2019-06-10T04:00:10.360Z,220.00
2019-06-10T04:01:04.012Z,188.00
2019-06-10T04:02:04.003Z,172.00
2019-06-10T04:03:04.004Z,156.00
2019-06-10T04:04:04.002Z,144.00
2019-06-10T04:05:04.002Z,132.00
2019-06-10T04:06:04.063Z,116.00
2019-06-10T04:07:04.129Z,108.00
2019-06-10T04:08:04.000Z,104.00
2019-06-10T04:09:04.001Z,104.00
2019-06-10T04:10:03.998Z,104.00
2019-06-10T04:11:04.001Z,120.00
2019-06-10T04:12:03.998Z,128.00
2019-06-10T04:13:03.996Z,128.00
2019-06-10T04:14:03.997Z,144.00
2019-06-10T04:15:03.996Z,168.00
2019-06-10T04:16:03.996Z,180.00
2019-06-10T04:17:03.995Z,196.00
2019-06-10T04:18:04.166Z,220.00
2019-06-10T04:19:03.992Z,232.00
2019-06-10T04:20:11.531Z,244.00
2019-06-10T04:21:03.994Z,240.00
2019-06-10T04:22:03.993Z,240.00
2019-06-10T04:23:04.005Z,260.00
2019-06-10T04:24:03.994Z,240.00
2019-06-10T04:25:03.991Z,240.00
2019-06-10T04:26:03.995Z,260.00
2019-06-10T04:27:03.990Z,320.00
2019-06-10T04:28:03.989Z,316.00
2019-06-10T04:29:03.992Z,312.00
2019-06-10T04:30:03.993Z,320.00
2019-06-10T04:31:03.987Z,328.00
2019-06-10T04:32:03.987Z,300.00
2019-06-10T04:33:03.986Z,264.00
2019-06-10T04:34:03.989Z,248.00
2019-06-10T04:35:03.989Z,252.00
2019-06-10T04:36:03.986Z,256.00
2019-06-10T04:37:03.987Z,244.00
2019-06-10T04:38:03.986Z,240.00
2019-06-10T04:39:03.986Z,232.00
2019-06-10T04:40:03.984Z,244.00
2019-06-10T04:41:03.985Z,264.00
2019-06-10T04:42:03.985Z,272.00
2019-06-10T04:43:03.986Z,252.00
2019-06-10T04:44:03.983Z,260.00
2019-06-10T04:45:03.982Z,276.00
2019-06-10T04:46:03.984Z,292.00
2019-06-10T04:47:03.982Z,304.00
2019-06-10T04:48:03.981Z,332.00
2019-06-10T04:49:03.982Z,324.00
2019-06-10T04:50:03.989Z,304.00
2019-06-10T04:51:03.984Z,272.00
2019-06-10T04:52:03.980Z,256.00
2019-06-10T04:53:03.981Z,256.00
2019-06-10T04:54:03.979Z,276.00
2019-06-10T04:55:03.979Z,304.00
2019-06-10T04:56:03.979Z,380.00
2019-06-10T04:57:03.979Z,468.00
2019-06-10T04:58:03.978Z,524.00
2019-06-10T04:59:03.979Z,576.00
2019-06-10T05:00:11.008Z,568.00
2019-06-10T05:01:03.977Z,576.00
2019-06-10T05:02:05.765Z,576.00
2019-06-10T05:03:03.978Z,548.00
2019-06-10T05:04:03.974Z,496.00
2019-06-10T05:05:03.976Z,472.00
2019-06-10T05:06:03.975Z,468.00
2019-06-10T05:07:03.976Z,416.00
2019-06-10T05:08:03.974Z,412.00
2019-06-10T05:09:04.286Z,400.00
2019-06-10T05:10:03.979Z,368.00
2019-06-10T05:11:04.001Z,336.00
2019-06-10T05:12:03.975Z,320.00
2019-06-10T05:13:03.975Z,288.00
2019-06-10T05:14:03.975Z,252.00
2019-06-10T05:15:03.975Z,244.00
2019-06-10T05:16:04.028Z,312.00
2019-06-10T05:17:03.972Z,412.00
2019-06-10T05:18:03.971Z,580.00
2019-06-10T05:19:04.044Z,812.00
2019-06-10T05:20:03.970Z,988.00
2019-06-10T05:21:03.970Z,1008.00
2019-06-10T05:22:03.969Z,1052.00
2019-06-10T05:23:03.975Z,1088.00
2019-06-10T05:24:03.969Z,1172.00
2019-06-10T05:25:03.973Z,1284.00
2019-06-10T05:26:03.981Z,1400.00
2019-06-10T05:27:03.971Z,1444.00
2019-06-10T05:28:03.969Z,1476.00
2019-06-10T05:29:03.969Z,1572.00
2019-06-10T05:30:03.969Z,1688.00
2019-06-10T05:31:03.968Z,1752.00
2019-06-10T05:32:03.972Z,1804.00
2019-06-10T05:33:03.969Z,1860.00
2019-06-10T05:34:03.970Z,1896.00
2019-06-10T05:35:03.974Z,1936.00
2019-06-10T05:36:03.968Z,1984.00
2019-06-10T05:37:03.970Z,2148.00
2019-06-10T05:38:03.973Z,2268.00
2019-06-10T05:39:03.972Z,2248.00
2019-06-10T05:40:03.971Z,1988.00
2019-06-10T05:41:03.972Z,1932.00
2019-06-10T05:42:03.983Z,1900.00
2019-06-10T05:43:03.968Z,1748.00
2019-06-10T05:44:03.970Z,1656.00
2019-06-10T05:45:03.973Z,1612.00
2019-06-10T05:46:03.971Z,1596.00
2019-06-10T05:47:04.227Z,1488.00
2019-06-10T05:48:03.971Z,1480.00
2019-06-10T05:49:03.973Z,1516.00
2019-06-10T05:50:03.972Z,1544.00
2019-06-10T05:51:06.797Z,1564.00
2019-06-10T05:52:03.973Z,1588.00
2019-06-10T05:53:03.971Z,1640.00
2019-06-10T05:54:03.974Z,1688.00
2019-06-10T05:55:03.973Z,1732.00
2019-06-10T05:56:03.974Z,1760.00
2019-06-10T05:57:03.976Z,1824.00
2019-06-10T05:58:03.974Z,1860.00
2019-06-10T05:59:04.463Z,1852.00
2019-06-10T06:00:11.006Z,1840.00
2019-06-10T06:01:03.973Z,1876.00
2019-06-10T06:02:03.976Z,1916.00
2019-06-10T06:03:03.974Z,1924.00
2019-06-10T06:04:03.976Z,1912.00
2019-06-10T06:05:03.976Z,1904.00
2019-06-10T06:06:03.976Z,1924.00
2019-06-10T06:07:03.977Z,1892.00
2019-06-10T06:08:08.309Z,1940.00
2019-06-10T06:09:03.976Z,1992.00
2019-06-10T06:10:03.977Z,2040.00
2019-06-10T06:11:03.976Z,2224.00
2019-06-10T06:12:03.981Z,2368.00
2019-06-10T06:13:03.977Z,2284.00
2019-06-10T06:14:03.976Z,2384.00
2019-06-10T06:15:03.978Z,2584.00
2019-06-10T06:16:03.977Z,2888.00
2019-06-10T06:17:03.976Z,2848.00
2019-06-10T06:18:10.062Z,2988.00
2019-06-10T06:19:03.980Z,3048.00
2019-06-10T06:20:03.979Z,3616.00
2019-06-10T06:21:20.495Z,3544.00
2019-06-10T06:22:03.979Z,3528.00
2019-06-10T06:23:03.980Z,3616.00
2019-06-10T06:24:04.255Z,3636.00
2019-06-10T06:25:04.066Z,3660.00
2019-06-10T06:26:04.182Z,3348.00
2019-06-10T06:27:03.989Z,3016.00
2019-06-10T06:28:03.982Z,3212.00
2019-06-10T06:29:03.987Z,3364.00
2019-06-10T06:30:10.873Z,3388.00
2019-06-10T06:31:03.985Z,3600.00
2019-06-10T06:32:03.986Z,3560.00
2019-06-10T06:33:03.985Z,2996.00
2019-06-10T06:34:03.987Z,3620.00
2019-06-10T06:35:03.987Z,3712.00
2019-06-10T06:36:03.988Z,4316.00
2019-06-10T06:37:03.989Z,5164.00
2019-06-10T06:38:03.989Z,5588.00
2019-06-10T06:39:03.993Z,4868.00
2019-06-10T06:40:03.990Z,4692.00
2019-06-10T06:41:03.990Z,4520.00
2019-06-10T06:42:03.991Z,4420.00
2019-06-10T06:43:03.993Z,3464.00
2019-06-10T06:44:03.994Z,3260.00
2019-06-10T06:45:03.993Z,3612.00
2019-06-10T06:46:03.997Z,4000.00
2019-06-10T06:47:04.017Z,4020.00
2019-06-10T06:48:03.998Z,2912.00
2019-06-10T06:49:03.998Z,2988.00
2019-06-10T06:50:03.999Z,3220.00
2019-06-10T06:51:08.085Z,5164.00
2019-06-10T06:52:04.141Z,5276.00
2019-06-10T06:53:23.396Z,5252.00
2019-06-10T06:54:04.001Z,5492.00
2019-06-10T06:55:04.005Z,4544.00
2019-06-10T06:56:04.033Z,4276.00
2019-06-10T06:57:04.011Z,3940.00
2019-06-10T06:58:04.006Z,3896.00
2019-06-10T06:59:04.008Z,4712.00
2019-06-10T07:00:34.098Z,3696.00
2019-06-10T07:01:10.613Z,4248.00
2019-06-10T07:02:04.010Z,4536.00
2019-06-10T07:03:04.017Z,4436.00
2019-06-10T07:04:04.012Z,3736.00
2019-06-10T07:05:04.012Z,3464.00
2019-06-10T07:06:04.013Z,3236.00
2019-06-10T07:07:04.017Z,3112.00
2019-06-10T07:08:04.017Z,3000.00
2019-06-10T07:09:07.922Z,3008.00
2019-06-10T07:10:04.020Z,3080.00
2019-06-10T07:11:04.023Z,3396.00
2019-06-10T07:12:04.024Z,3692.00
2019-06-10T07:13:04.033Z,3832.00
2019-06-10T07:14:04.026Z,3796.00
2019-06-10T07:15:04.400Z,3524.00
2019-06-10T07:16:04.034Z,3500.00
2019-06-10T07:17:04.099Z,3324.00
2019-06-10T07:18:04.033Z,3268.00
2019-06-10T07:19:04.034Z,3140.00
2019-06-10T07:20:04.034Z,3056.00
2019-06-10T07:21:04.031Z,3052.00
2019-06-10T07:22:12.290Z,3000.00
2019-06-10T07:23:04.037Z,2972.00
2019-06-10T07:24:04.037Z,3088.00
2019-06-10T07:25:06.514Z,3148.00
2019-06-10T07:26:04.042Z,3248.00
2019-06-10T07:27:04.041Z,3320.00
2019-06-10T07:28:04.043Z,3364.00
2019-06-10T07:29:04.044Z,3320.00
2019-06-10T07:30:11.454Z,3332.00
2019-06-10T07:31:19.493Z,3748.00
2019-06-10T07:32:04.047Z,3488.00
2019-06-10T07:33:04.049Z,3408.00
2019-06-10T07:34:04.052Z,3520.00
2019-06-10T07:35:04.053Z,3672.00
2019-06-10T07:36:04.054Z,4020.00
2019-06-10T07:37:04.057Z,4132.00
2019-06-10T07:38:04.058Z,4064.00
2019-06-10T07:39:04.061Z,4216.00
2019-06-10T07:40:04.061Z,4400.00
2019-06-10T07:41:04.063Z,4320.00
2019-06-10T07:42:04.065Z,4268.00
2019-06-10T07:43:04.074Z,4260.00
2019-06-10T07:44:04.068Z,4324.00
2019-06-10T07:45:04.074Z,4412.00
2019-06-10T07:46:04.081Z,4176.00
2019-06-10T07:47:04.077Z,4032.00
2019-06-10T07:48:04.074Z,4004.00
2019-06-10T07:49:04.082Z,3984.00
2019-06-10T07:50:04.080Z,4028.00
2019-06-10T07:51:04.082Z,4156.00
2019-06-10T07:52:15.888Z,4336.00
2019-06-10T07:53:04.086Z,4384.00
2019-06-10T07:54:04.088Z,4428.00
2019-06-10T07:55:04.095Z,4396.00
2019-06-10T07:56:04.098Z,4388.00
2019-06-10T07:57:04.095Z,4304.00
2019-06-10T07:58:04.097Z,4324.00
2019-06-10T07:59:04.135Z,4496.00
2019-06-10T08:00:04.101Z,4448.00
2019-06-10T08:01:04.104Z,4556.00
2019-06-10T08:02:04.107Z,4560.00
2019-06-10T08:03:04.107Z,4396.00
2019-06-10T08:04:04.110Z,4312.00
2019-06-10T08:05:04.117Z,4352.00
2019-06-10T08:06:04.119Z,4488.00
2019-06-10T08:07:04.119Z,4348.00
2019-06-10T08:08:04.122Z,4224.00
2019-06-10T08:09:04.122Z,4004.00
2019-06-10T08:10:04.127Z,3928.00
2019-06-10T08:11:04.131Z,3884.00
2019-06-10T08:12:06.038Z,3796.00
2019-06-10T08:13:04.140Z,3692.00
2019-06-10T08:14:04.753Z,3632.00
2019-06-10T08:15:04.141Z,3820.00
2019-06-10T08:16:04.145Z,4036.00
2019-06-10T08:17:04.145Z,4108.00
2019-06-10T08:18:04.425Z,4300.00
2019-06-10T08:19:26.326Z,4456.00
2019-06-10T08:20:04.151Z,4408.00
2019-06-10T08:21:04.164Z,4364.00
2019-06-10T08:22:04.158Z,4220.00
2019-06-10T08:23:04.162Z,4224.00
2019-06-10T08:24:04.163Z,4392.00
2019-06-10T08:25:04.897Z,4540.00
2019-06-10T08:26:04.180Z,4688.00
2019-06-10T08:27:04.188Z,4792.00
2019-06-10T08:28:04.175Z,4732.00
2019-06-10T08:29:04.542Z,4900.00
2019-06-10T08:30:15.288Z,4776.00
2019-06-10T08:31:04.185Z,4640.00
2019-06-10T08:32:04.194Z,4536.00
2019-06-10T08:33:04.194Z,4432.00
2019-06-10T08:34:04.195Z,4624.00
2019-06-10T08:35:04.196Z,5124.00
2019-06-10T08:36:04.299Z,5284.00
2019-06-10T08:37:04.691Z,5304.00
2019-06-10T08:38:04.209Z,5316.00
2019-06-10T08:39:04.213Z,5156.00
2019-06-10T08:40:04.218Z,4916.00
2019-06-10T08:41:04.248Z,5120.00
2019-06-10T08:42:04.222Z,5016.00
2019-06-10T08:43:04.489Z,5128.00
2019-06-10T08:44:04.230Z,5352.00
2019-06-10T08:45:04.233Z,5400.00
2019-06-10T08:46:04.240Z,5528.00
2019-06-10T08:47:04.246Z,5668.00
2019-06-10T08:48:04.246Z,5612.00
2019-06-10T08:49:04.368Z,5532.00
2019-06-10T08:50:04.264Z,5020.00
2019-06-10T08:51:04.278Z,4748.00
2019-06-10T08:52:04.267Z,4712.00
2019-06-10T08:53:13.611Z,4644.00
2019-06-10T08:54:04.272Z,4628.00
2019-06-10T08:55:04.278Z,4608.00
2019-06-10T08:56:04.282Z,4700.00
2019-06-10T08:57:04.706Z,4668.00
2019-06-10T08:58:04.560Z,4788.00
2019-06-10T08:59:04.299Z,4720.00
2019-06-10T09:00:11.741Z,4636.00
2019-06-10T09:01:04.310Z,4648.00
2019-06-10T09:02:04.335Z,4812.00
2019-06-10T09:03:04.378Z,4628.00
2019-06-10T09:04:04.323Z,4580.00
2019-06-10T09:05:04.996Z,4516.00
2019-06-10T09:06:04.327Z,4492.00
2019-06-10T09:07:04.443Z,4476.00
2019-06-10T09:08:04.335Z,4584.00
2019-06-10T09:09:04.348Z,4696.00
2019-06-10T09:10:04.345Z,4744.00
2019-06-10T09:11:04.352Z,4636.00
2019-06-10T09:12:04.712Z,4536.00
2019-06-10T09:13:04.363Z,4600.00
2019-06-10T09:14:04.365Z,4500.00
2019-06-10T09:15:04.373Z,4540.00
2019-06-10T09:16:12.926Z,4472.00
2019-06-10T09:17:04.381Z,4624.00
2019-06-10T09:18:04.386Z,4816.00
2019-06-10T09:19:04.394Z,4928.00
2019-06-10T09:20:04.402Z,5068.00
2019-06-10T09:21:04.405Z,5056.00
2019-06-10T09:22:04.407Z,5292.00
2019-06-10T09:23:17.892Z,5224.00
2019-06-10T09:24:04.416Z,5300.00
2019-06-10T09:25:04.423Z,5152.00
2019-06-10T09:26:04.432Z,5088.00
2019-06-10T09:27:04.436Z,5044.00
2019-06-10T09:28:04.442Z,5556.00
2019-06-10T09:29:04.447Z,5364.00
2019-06-10T09:30:04.457Z,5628.00
2019-06-10T09:31:05.492Z,5540.00
2019-06-10T09:32:04.467Z,5512.00
2019-06-10T09:33:04.953Z,5632.00
2019-06-10T09:34:04.478Z,5708.00
2019-06-10T09:35:04.485Z,6268.00
2019-06-10T09:36:04.489Z,6732.00
2019-06-10T09:37:04.495Z,6880.00
2019-06-10T09:38:04.501Z,6836.00
2019-06-10T09:39:04.510Z,6852.00
2019-06-10T09:40:04.511Z,6800.00
2019-06-10T09:41:06.226Z,6844.00
2019-06-10T09:42:06.513Z,6756.00
2019-06-10T09:43:05.169Z,6524.00
2019-06-10T09:44:04.537Z,6504.00
2019-06-10T09:45:04.545Z,6380.00
2019-06-10T09:46:04.549Z,6544.00
2019-06-10T09:47:04.560Z,6552.00
2019-06-10T09:48:04.571Z,6668.00
2019-06-10T09:49:04.579Z,6740.00
2019-06-10T09:50:04.571Z,6848.00
2019-06-10T09:51:04.577Z,6884.00
2019-06-10T09:52:04.583Z,6804.00
2019-06-10T09:53:04.607Z,6552.00
2019-06-10T09:54:06.734Z,6588.00
2019-06-10T09:55:04.608Z,6916.00
2019-06-10T09:56:04.627Z,7460.00
2019-06-10T09:57:04.624Z,7012.00
2019-06-10T09:58:04.622Z,6340.00
2019-06-10T09:59:04.628Z,6048.00
2019-06-10T10:00:04.633Z,5972.00
2019-06-10T10:01:04.858Z,6240.00
2019-06-10T10:02:07.060Z,6008.00
2019-06-10T10:03:04.728Z,5832.00
2019-06-10T10:04:04.860Z,5632.00
2019-06-10T10:05:04.666Z,5552.00
2019-06-10T10:06:14.602Z,5548.00
2019-06-10T10:07:04.676Z,5544.00
2019-06-10T10:08:04.683Z,5436.00
2019-06-10T10:09:04.686Z,5276.00
2019-06-10T10:10:05.511Z,5240.00
2019-06-10T10:11:04.704Z,5312.00
2019-06-10T10:12:04.704Z,5380.00
2019-06-10T10:13:04.710Z,5644.00
2019-06-10T10:14:08.429Z,5908.00
2019-06-10T10:15:22.639Z,6288.00
2019-06-10T10:16:04.725Z,6096.00
2019-06-10T10:17:05.045Z,6132.00
2019-06-10T10:18:04.768Z,6220.00
2019-06-10T10:19:05.482Z,6276.00
2019-06-10T10:20:04.747Z,6428.00
2019-06-10T10:21:04.792Z,6416.00
2019-06-10T10:22:04.780Z,6676.00
2019-06-10T10:23:04.766Z,6872.00
2019-06-10T10:24:10.201Z,7244.00
2019-06-10T10:25:04.777Z,8012.00
2019-06-10T10:26:04.784Z,8920.00
2019-06-10T10:27:09.072Z,8960.00
2019-06-10T10:28:04.791Z,9360.00
2019-06-10T10:29:05.174Z,9632.00
2019-06-10T10:30:04.802Z,10568.00
2019-06-10T10:31:04.875Z,11648.00
2019-06-10T10:32:04.811Z,9768.00
2019-06-10T10:33:04.820Z,8672.00
2019-06-10T10:34:04.825Z,8564.00
2019-06-10T10:35:04.833Z,7700.00
2019-06-10T10:36:04.837Z,7540.00
2019-06-10T10:37:04.844Z,7052.00
2019-06-10T10:38:04.853Z,6236.00
2019-06-10T10:39:04.857Z,6084.00
2019-06-10T10:40:04.863Z,6880.00
2019-06-10T10:41:05.068Z,7004.00
2019-06-10T10:42:04.877Z,7348.00
2019-06-10T10:43:22.495Z,6836.00
2019-06-10T10:44:04.894Z,6300.00
2019-06-10T10:45:04.897Z,5852.00
2019-06-10T10:46:05.738Z,5764.00
2019-06-10T10:47:04.911Z,5856.00
2019-06-10T10:48:04.933Z,6556.00
2019-06-10T10:49:04.919Z,7364.00
2019-06-10T10:50:04.924Z,7204.00
2019-06-10T10:51:04.931Z,6988.00
2019-06-10T10:52:04.937Z,7936.00
2019-06-10T10:53:04.943Z,8432.00
2019-06-10T10:54:29.736Z,8164.00
2019-06-10T10:55:07.022Z,8340.00
2019-06-10T10:56:04.962Z,9128.00
2019-06-10T10:57:04.969Z,10708.00
2019-06-10T10:58:04.976Z,12124.00
2019-06-10T10:59:04.983Z,11608.00
2019-06-10T11:00:04.988Z,11244.00
2019-06-10T11:01:05.187Z,10984.00
2019-06-10T11:02:04.999Z,12704.00
2019-06-10T11:03:05.004Z,14452.00
2019-06-10T11:04:05.013Z,16512.00
2019-06-10T11:05:05.018Z,18880.00
2019-06-10T11:06:05.031Z,16512.00
2019-06-10T11:07:05.034Z,12688.00
2019-06-10T11:08:05.036Z,11040.00
2019-06-10T11:09:05.043Z,9764.00
2019-06-10T11:10:05.050Z,9148.00
2019-06-10T11:11:05.922Z,9544.00
2019-06-10T11:12:05.068Z,7784.00
2019-06-10T11:13:05.071Z,6944.00
2019-06-10T11:14:05.076Z,6088.00
2019-06-10T11:15:05.279Z,6020.00
2019-06-10T11:16:05.088Z,5972.00
2019-06-10T11:17:05.095Z,5604.00
2019-06-10T11:18:05.106Z,5392.00
2019-06-10T11:19:05.110Z,5392.00
2019-06-10T11:20:05.117Z,5256.00
2019-06-10T11:21:05.421Z,5120.00
2019-06-10T11:22:05.130Z,4992.00
2019-06-10T11:23:05.136Z,5024.00
2019-06-10T11:24:05.143Z,5144.00
2019-06-10T11:25:05.164Z,5184.00
2019-06-10T11:26:05.161Z,5304.00
2019-06-10T11:27:05.158Z,5220.00
2019-06-10T11:28:05.169Z,5144.00
2019-06-10T11:29:05.173Z,5072.00
2019-06-10T11:30:05.179Z,5004.00
2019-06-10T11:31:05.186Z,4968.00
2019-06-10T11:32:05.190Z,4976.00
2019-06-10T11:33:05.197Z,4868.00
2019-06-10T11:34:05.202Z,4720.00
2019-06-10T11:35:05.210Z,4688.00
2019-06-10T11:36:05.220Z,4644.00
2019-06-10T11:37:05.243Z,4544.00
2019-06-10T11:38:05.229Z,4448.00
2019-06-10T11:39:05.230Z,4388.00
2019-06-10T11:40:05.235Z,4352.00
2019-06-10T11:41:05.246Z,4380.00
2019-06-10T11:42:05.248Z,4452.00
2019-06-10T11:43:05.254Z,4536.00
2019-06-10T11:44:05.261Z,4584.00
2019-06-10T11:45:05.264Z,4632.00
2019-06-10T11:46:07.798Z,4744.00
2019-06-10T11:47:05.280Z,4980.00
2019-06-10T11:48:05.285Z,5328.00
2019-06-10T11:49:05.284Z,5768.00
2019-06-10T11:50:05.292Z,5816.00
2019-06-10T11:51:05.297Z,5916.00
2019-06-10T11:52:05.301Z,5896.00
2019-06-10T11:53:05.308Z,6060.00
2019-06-10T11:54:05.318Z,5660.00
2019-06-10T11:55:14.854Z,5552.00
2019-06-10T11:56:05.322Z,5512.00
2019-06-10T11:57:05.327Z,5488.00
2019-06-10T11:58:05.352Z,5644.00
2019-06-10T11:59:09.356Z,5964.00
2019-06-10T12:00:13.706Z,6508.00
2019-06-10T12:01:05.353Z,7908.00
2019-06-10T12:02:06.112Z,8688.00
2019-06-10T12:03:05.416Z,10884.00
2019-06-10T12:04:05.366Z,11260.00
2019-06-10T12:05:05.370Z,11484.00
2019-06-10T12:06:05.823Z,12872.00
2019-06-10T12:07:05.385Z,12608.00
2019-06-10T12:08:05.395Z,11448.00
2019-06-10T12:09:05.391Z,9932.00
2019-06-10T12:10:05.398Z,8780.00
2019-06-10T12:11:05.408Z,7752.00
2019-06-10T12:12:05.414Z,7508.00
2019-06-10T12:13:07.302Z,7196.00
2019-06-10T12:14:05.425Z,7544.00
2019-06-10T12:15:05.466Z,8976.00
2019-06-10T12:17:14.847Z,12276.00
2019-06-10T12:17:24.684Z,12592.00
2019-06-10T12:18:08.709Z,12532.00
2019-06-10T12:19:05.456Z,8992.00
2019-06-10T12:20:05.460Z,11248.00
2019-06-10T12:21:05.487Z,17696.00
2019-06-10T12:22:07.649Z,27904.00
2019-06-10T12:23:05.479Z,38720.00
2019-06-10T12:24:05.481Z,41152.00
2019-06-10T12:25:30.400Z,40800.00
2019-06-10T12:26:05.557Z,40128.00